sim
Sign-in with your pilot id or email,
or register
Callsign
Passwort

Schedule Details

Flight Number: DLH2185
Departure: Hamburg Airport (EDDH) at 13:15
Arrival: Munich Airport (EDDM) at 14:30
Route: Lufthansa Passenger Schedule. Enter filed route here before submitting Pirep.

Weather Information
Getting current METAR information for EDDH 010350Z 12006KT CAVOK 10/09 Q1009 NOSIG
Getting current METAR information for EDDM 010350Z 07001KT 0700 R08L/0800N R08R/0500N FG FEW001 03/03 Q1010 BECMG 0500 BKN001

Schedule Frequency

Route Map